Briefing drone pour Saint-astier

Rechercher une autre localisation

Conditions de vol :


Nous sommes le : Mardi 27 juillet 2021
Il est 16:16 UTC (18:16 LT)

Lever de soleil : 04:11 UTC (06:11 LT)
Coucher de soleil : 19:57 UTC (21:57 LT)

Météo

L'essentiel des conditions de vol

VIGILANCE MÉTÉO FRANCE - Dordogne (24)
Pas de vigilances particulieres
METAR de LFBX
LFBX 271600Z AUTO 27004KT 230V300 9999 FEW028 BKN035 BKN062 22/15 Q1015

Date d'émission: 27/07/2021
Heure d'émission: 16:00 UTC
Vent: 270° (variable du 230° au 300°) pour 4 KT (7 km/h)
Visibilité horizontale: > 10 km
Plafond :
- Peu de nuages à 2800ft (853m)
- Nuages morcelés à 3500ft (1067m)
- Nuages morcelés à 6200ft (1890m)
Température: 22 °C
Point de rosée: 15 °C
Humidité: 65%
Pression (QNH): 1015 hPa
Prévision 24h pour Perigueux (10 km)
Vent : 253° pour 1 KT (5 km/h)
Temperature Maxi: 25 °C
Temperature Min: 25 °C
Humidité : 47%
Condition : Nuageux



Warning: count(): Parameter must be an array or an object that implements Countable in /homepages/6/d509196549/htdocs/droneoxygene/briefing.php on line 743
WEBCAM POUR SAINT-ASTIER

Réglementation

Voler en sécurité

CARTES AERONAUTIQUE 1/500.000
CARTES VAC (LFBX)
SUP AIP




Chargement des AIP...
NOTAM (SAINT-ASTIER + Terrain à proximité / FIR )




Chargement des NOTAMS...
CONTACT PREFECTURE 24


Avertissement : Les données mises à disposition sont indicatives. Oxygène Drone ne pourra être tenu responsable de dégâts causés aux biens et aux personnes.